Terminal Aerodrome Forecast
Issued by NWS

Home | Current Version | Previous Version | Text Only | Print | Product List | Glossary On
Versions: 1 2 3 4 5 6 7 8 9 10 11 12 13 14 15 16 17 18
000
FTUS43 KDLH 250500
TAFHIB
TAF
KHIB 250528Z 2506/2606 21009KT P6SM BKN015 OVC060
      TEMPO 2506/2508 3SM -SN BKN008 OVC015
     FM251000 21007KT 6SM BR OVC008
     FM251700 27004KT P6SM OVC015
     FM252300 33004KT P6SM OVC015=

USA.gov is the U.S. government's official web portal to all federal, state and local government web resources and services.